Waskom, Texas
Current Conditions -  °F | °C
As of 12:56 PM on Monday 20 Oct 2014 (Local Time) from KSHV Reporting Station
Scattered Clouds Scattered Clouds  
Wind Chill: 73°   Ceiling: Unl
Heat Index: 73°   Visibility: 10mi
Dew Point: 52°   Wind: 7mph
Humidity: 48%   Direction: 350°N
Pressure: 30.08"   Gusts: NA
Location:  32.48°N, 94.06°W
Report Text: KSHV 201756Z 35006KT 10SM SCT280 23/11 A3008 RMK AO2 SLP183 T02280111 10233 20094 58013
Loading
Personal Weather Stations






























Interactive Weather Map
Tropical Storm Tracking
New forecast layout! Learn more

10-Day Weather Forecast

Advertisements
Track Severe Weather on mobile